Time;durP1;ratioP1;P1;durP2;ratioP2;P2;SDS_P1;SDS_P2;PMS_P1;PMS_P2;Temp;Humidity;BMP_temperature;BMP_pressure;BME280_temperature;BME280_humidity;BME280_pressure;Samples;Min_cycle;Max_cycle;Signal;HPM_P1;HPM_P2
2022/11/15 00:00:43;;;;;;;15.63;9.95;;;;;;;;;;5100710;28;20102;-71
2022/11/15 00:03:28;;;;;;;20.15;10.73;;;;;;;;;;5114948;28;20393;-72
2022/11/15 00:06:14;;;;;;;17.20;9.90;;;;;;;;;;5114913;28;20027;-72
2022/11/15 00:09:00;;;;;;;17.23;10.68;;;;;;;;;;5114873;28;20027;-71
2022/11/15 00:11:46;;;;;;;14.63;9.60;;;;;;;;;;5113805;28;20028;-73
2022/11/15 00:14:31;;;;;;;14.13;9.75;;;;;;;;;;5113727;28;20089;-72
2022/11/15 00:17:17;;;;;;;16.20;9.73;;;;;;;;;;5114280;28;20455;-72
2022/11/15 00:20:02;;;;;;;14.52;9.60;;;;;;;;;;5117623;28;20035;-72
2022/11/15 00:22:48;;;;;;;17.45;10.95;;;;;;;;;;5118761;28;20041;-73
2022/11/15 00:25:34;;;;;;;17.13;10.32;;;;;;;;;;5119240;28;20046;-71
2022/11/15 00:28:19;;;;;;;17.98;10.77;;;;;;;;;;5118555;28;20459;-72
2022/11/15 00:31:06;;;;;;;13.98;9.13;;;;;;;;;;5119042;28;20045;-70
2022/11/15 00:33:52;;;;;;;15.52;9.90;;;;;;;;;;5118567;28;20027;-71
2022/11/15 00:36:37;;;;;;;14.93;10.05;;;;;;;;;;5103757;28;20081;-71
2022/11/15 00:39:23;;;;;;;12.55;9.45;;;;;;;;;;5118545;28;20028;-72
2022/11/15 00:42:08;;;;;;;14.90;9.90;;;;;;;;;;5104601;28;20016;-73
2022/11/15 00:44:54;;;;;;;13.63;9.63;;;;;;;;;;5118925;28;20100;-73
2022/11/15 00:47:39;;;;;;;14.23;10.30;;;;;;;;;;5118428;28;20015;-73
2022/11/15 00:50:25;;;;;;;12.75;9.07;;;;;;;;;;5117656;28;20020;-71
2022/11/15 00:53:10;;;;;;;16.13;9.52;;;;;;;;;;5117862;28;20471;-72
2022/11/15 00:55:56;;;;;;;13.13;9.63;;;;;;;;;;5117477;28;20069;-71
2022/11/15 00:58:42;;;;;;;14.98;9.70;;;;;;;;;;5119030;28;20348;-73
2022/11/15 01:01:27;;;;;;;13.90;9.20;;;;;;;;;;5118159;28;20054;-71
2022/11/15 01:04:13;;;;;;;15.52;9.82;;;;;;;;;;5117290;28;20016;-71
2022/11/15 01:06:59;;;;;;;16.30;10.77;;;;;;;;;;5118516;28;20019;-72
2022/11/15 01:09:44;;;;;;;14.10;10.02;;;;;;;;;;5117534;28;20051;-70
2022/11/15 01:12:30;;;;;;;14.45;9.55;;;;;;;;;;5118089;28;20050;-71
2022/11/15 01:15:16;;;;;;;14.25;9.88;;;;;;;;;;5117384;28;20092;-71
2022/11/15 01:18:01;;;;;;;16.05;9.68;;;;;;;;;;5118734;27;20023;-72
2022/11/15 01:20:47;;;;;;;15.25;9.38;;;;;;;;;;5117293;28;20073;-72
2022/11/15 01:23:33;;;;;;;16.33;10.05;;;;;;;;;;5117034;28;20448;-72
2022/11/15 01:26:18;;;;;;;15.45;9.32;;;;;;;;;;5117437;28;20034;-71
2022/11/15 01:29:04;;;;;;;12.90;8.55;;;;;;;;;;5116677;28;20464;-73
2022/11/15 01:31:49;;;;;;;14.05;8.93;;;;;;;;;;5118194;28;20435;-72
2022/11/15 01:34:35;;;;;;;13.75;9.00;;;;;;;;;;5102654;28;20031;-72
2022/11/15 01:37:20;;;;;;;13.85;9.35;;;;;;;;;;5116430;28;20071;-71
2022/11/15 01:40:06;;;;;;;13.13;8.88;;;;;;;;;;5118059;28;20023;-72
2022/11/15 01:42:52;;;;;;;13.63;9.07;;;;;;;;;;5116588;28;20444;-71
2022/11/15 01:45:37;;;;;;;14.73;9.90;;;;;;;;;;5118045;28;20035;-72
2022/11/15 01:48:25;;;;;;;15.27;9.93;;;;;;;;;;5115658;28;20023;-72
2022/11/15 01:51:13;;;;;;;14.98;9.50;;;;;;;;;;5117691;28;20015;-71
2022/11/15 01:54:04;;;;;;;17.45;10.10;;;;;;;;;;5117188;28;20024;-72
2022/11/15 01:57:01;;;;;;;18.20;9.80;;;;;;;;;;5101985;28;20332;-72
2022/11/15 01:59:46;;;;;;;16.00;9.23;;;;;;;;;;5117105;28;20023;-71
2022/11/15 02:02:33;;;;;;;15.77;10.20;;;;;;;;;;5115788;28;20115;-71
2022/11/15 02:05:18;;;;;;;15.95;10.25;;;;;;;;;;5117401;28;20046;-72
2022/11/15 02:08:05;;;;;;;16.33;10.00;;;;;;;;;;5116309;28;20639;-71
2022/11/15 02:10:50;;;;;;;15.52;9.60;;;;;;;;;;5116643;28;20047;-71
2022/11/15 02:13:36;;;;;;;17.92;10.80;;;;;;;;;;5116961;28;20023;-71
2022/11/15 02:16:25;;;;;;;17.85;10.18;;;;;;;;;;5116634;28;20023;-72
2022/11/15 02:19:13;;;;;;;18.42;10.88;;;;;;;;;;5101484;28;20053;-72
2022/11/15 02:22:07;;;;;;;18.55;10.63;;;;;;;;;;5116273;28;20023;-72
2022/11/15 02:25:02;;;;;;;16.95;10.05;;;;;;;;;;5116309;28;20106;-72
2022/11/15 02:27:59;;;;;;;19.10;10.85;;;;;;;;;;5116345;28;20501;-73
2022/11/15 02:30:50;;;;;;;15.98;10.25;;;;;;;;;;5115812;28;20023;-72
2022/11/15 02:33:41;;;;;;;18.15;10.02;;;;;;;;;;5116652;28;20432;-72
2022/11/15 02:36:30;;;;;;;20.05;11.07;;;;;;;;;;5115607;28;20120;-72
2022/11/15 02:39:15;;;;;;;16.15;10.50;;;;;;;;;;5116706;28;20028;-72
2022/11/15 02:43:56;;;;;;;16.15;9.80;;;;;;;;;;5115410;28;20362;-72
2022/11/15 02:45:17;;;;;;;15.13;9.82;;;;;;;;;;5117615;27;20077;-71
2022/11/15 02:48:03;;;;;;;18.63;9.88;;;;;;;;;;5115721;28;20447;-72
2022/11/15 02:50:49;;;;;;;17.98;9.43;;;;;;;;;;5115840;28;20027;-72
2022/11/15 02:53:35;;;;;;;16.55;9.43;;;;;;;;;;5115801;28;20085;-72
2022/11/15 02:56:20;;;;;;;14.82;9.10;;;;;;;;;;5114850;28;20359;-73
2022/11/15 02:59:15;;;;;;;15.45;9.00;;;;;;;;;;5116271;28;20023;-72
2022/11/15 03:02:19;;;;;;;15.10;9.15;;;;;;;;;;5107429;28;20086;-72
2022/11/15 03:05:20;;;;;;;16.80;9.70;;;;;;;;;;5114874;28;20034;-73
2022/11/15 03:08:17;;;;;;;16.27;9.52;;;;;;;;;;5115245;28;20023;-71
2022/11/15 03:11:08;;;;;;;15.18;9.23;;;;;;;;;;5115984;28;20031;-72
2022/11/15 03:14:00;;;;;;;16.08;9.07;;;;;;;;;;5115818;28;20106;-72
2022/11/15 03:16:55;;;;;;;16.40;9.82;;;;;;;;;;5115575;28;20028;-72
2022/11/15 03:19:44;;;;;;;14.18;9.20;;;;;;;;;;5114449;28;20031;-71
2022/11/15 03:22:33;;;;;;;15.30;9.40;;;;;;;;;;5115397;28;20027;-71
2022/11/15 03:25:20;;;;;;;16.95;9.52;;;;;;;;;;5115780;28;20463;-71
2022/11/15 03:28:08;;;;;;;16.73;10.27;;;;;;;;;;5101255;28;20043;-71
2022/11/15 03:30:55;;;;;;;14.30;9.38;;;;;;;;;;5115511;28;20387;-71
2022/11/15 03:33:41;;;;;;;15.90;9.75;;;;;;;;;;5115617;28;20474;-73
2022/11/15 03:36:26;;;;;;;15.27;9.13;;;;;;;;;;5114458;27;20062;-72
2022/11/15 03:39:13;;;;;;;17.23;9.85;;;;;;;;;;5115142;28;20020;-71
2022/11/15 03:42:01;;;;;;;17.83;9.98;;;;;;;;;;5114578;28;20451;-72
2022/11/15 03:44:47;;;;;;;19.00;10.48;;;;;;;;;;5101506;28;20410;-71
2022/11/15 03:47:36;;;;;;;13.18;8.82;;;;;;;;;;5115338;28;20042;-72
2022/11/15 03:50:22;;;;;;;18.63;9.75;;;;;;;;;;5115112;28;20470;-72
2022/11/15 03:53:08;;;;;;;16.55;10.05;;;;;;;;;;5113885;28;20027;-72
2022/11/15 03:55:53;;;;;;;16.17;9.85;;;;;;;;;;5099791;28;20504;-72
2022/11/15 03:58:39;;;;;;;17.08;9.73;;;;;;;;;;5113680;28;20132;-71
2022/11/15 04:01:24;;;;;;;18.38;10.45;;;;;;;;;;5099531;28;20022;-72
2022/11/15 04:04:10;;;;;;;17.65;10.80;;;;;;;;;;5100018;28;20059;-71
2022/11/15 04:06:56;;;;;;;19.92;10.85;;;;;;;;;;5114696;28;20016;-71
2022/11/15 04:12:48;;;;;;;19.98;10.85;;;;;;;;;;5115151;28;20038;-71
2022/11/15 04:15:34;;;;;;;20.85;10.88;;;;;;;;;;5114597;28;20451;-72
2022/11/15 04:18:19;;;;;;;17.35;10.00;;;;;;;;;;5100532;28;20028;-72
2022/11/15 04:24:12;;;;;;;17.77;10.85;;;;;;;;;;5114978;28;20039;-71
2022/11/15 04:26:57;;;;;;;18.90;10.85;;;;;;;;;;5114283;28;20019;-73
2022/11/15 04:29:43;;;;;;;20.83;11.30;;;;;;;;;;5115195;28;20099;-72
2022/11/15 04:32:28;;;;;;;19.67;10.80;;;;;;;;;;5115270;28;20050;-72
2022/11/15 04:35:14;;;;;;;17.48;11.07;;;;;;;;;;5116229;28;20110;-72
2022/11/15 04:38:00;;;;;;;17.65;10.68;;;;;;;;;;5099000;28;20071;-71
2022/11/15 04:40:46;;;;;;;21.52;11.50;;;;;;;;;;5114170;28;20023;-71
2022/11/15 04:43:31;;;;;;;21.27;11.35;;;;;;;;;;5114305;28;20012;-71
2022/11/15 04:46:17;;;;;;;19.65;11.70;;;;;;;;;;5098705;28;20066;-72
2022/11/15 04:49:03;;;;;;;19.75;11.50;;;;;;;;;;5098540;28;20381;-72
2022/11/15 04:51:49;;;;;;;21.17;12.32;;;;;;;;;;5099152;28;20016;-72
2022/11/15 04:54:34;;;;;;;21.60;11.98;;;;;;;;;;5113608;28;20035;-72
2022/11/15 04:57:20;;;;;;;24.35;11.95;;;;;;;;;;5113522;28;20012;-72
2022/11/15 05:00:07;;;;;;;18.15;10.43;;;;;;;;;;5113280;28;20039;-70
2022/11/15 05:05:58;;;;;;;21.85;10.80;;;;;;;;;;5115371;28;20024;-71
2022/11/15 05:08:44;;;;;;;20.75;11.57;;;;;;;;;;5117497;28;20408;-71
2022/11/15 05:11:29;;;;;;;21.88;11.13;;;;;;;;;;5118086;28;20016;-72
2022/11/15 05:14:15;;;;;;;20.60;11.85;;;;;;;;;;5120632;28;20343;-70
2022/11/15 05:17:01;;;;;;;18.33;11.15;;;;;;;;;;5117187;28;20069;-72
2022/11/15 05:19:46;;;;;;;21.63;11.75;;;;;;;;;;5117454;28;20011;-72
2022/11/15 05:22:32;;;;;;;21.92;11.63;;;;;;;;;;5117041;28;20019;-72
2022/11/15 05:25:18;;;;;;;18.35;11.15;;;;;;;;;;5116701;28;20390;-73
2022/11/15 05:28:03;;;;;;;17.55;10.23;;;;;;;;;;5116257;28;20020;-73
2022/11/15 05:30:49;;;;;;;23.63;11.75;;;;;;;;;;5116810;28;20016;-74
2022/11/15 05:33:38;;;;;;;23.55;11.35;;;;;;;;;;5116562;28;20023;-72
2022/11/15 05:36:43;;;;;;;20.85;11.52;;;;;;;;;;5115928;28;20967;-71
2022/11/15 05:39:28;;;;;;;68.82;39.40;;;;;;;;;;5116452;28;20015;-73
2022/11/15 05:42:15;;;;;;;26.20;13.55;;;;;;;;;;5116892;28;20107;-73
2022/11/15 05:45:02;;;;;;;19.88;10.98;;;;;;;;;;5116282;28;20011;-72
2022/11/15 05:47:48;;;;;;;23.45;11.50;;;;;;;;;;5103062;28;20478;-73
2022/11/15 05:50:36;;;;;;;26.52;11.52;;;;;;;;;;5116395;28;20043;-72
2022/11/15 05:53:22;;;;;;;23.30;12.30;;;;;;;;;;5116125;28;20022;-73
2022/11/15 05:56:08;;;;;;;22.35;11.35;;;;;;;;;;5116360;28;20030;-73
2022/11/15 05:58:55;;;;;;;20.75;11.77;;;;;;;;;;5116391;28;20023;-73
2022/11/15 06:01:40;;;;;;;19.90;10.93;;;;;;;;;;5116160;28;20020;-74
2022/11/15 06:04:26;;;;;;;21.10;11.43;;;;;;;;;;5101181;28;20015;-74
2022/11/15 06:07:12;;;;;;;23.02;11.50;;;;;;;;;;5116747;28;20026;-73
2022/11/15 06:09:57;;;;;;;21.63;11.75;;;;;;;;;;5116148;28;20085;-74
2022/11/15 06:12:43;;;;;;;23.13;11.98;;;;;;;;;;5116233;28;20047;-74
2022/11/15 06:15:28;;;;;;;25.67;11.63;;;;;;;;;;5115904;28;20024;-74
2022/11/15 06:18:14;;;;;;;22.73;11.57;;;;;;;;;;5114914;28;20043;-74
2022/11/15 06:21:00;;;;;;;25.02;11.35;;;;;;;;;;5115297;28;20023;-74
2022/11/15 06:23:45;;;;;;;23.95;11.05;;;;;;;;;;5115795;28;20007;-73
2022/11/15 06:26:31;;;;;;;20.73;11.52;;;;;;;;;;5115674;28;20073;-74
2022/11/15 06:29:17;;;;;;;27.48;11.65;;;;;;;;;;5116571;28;20019;-73
2022/11/15 06:32:02;;;;;;;26.25;11.70;;;;;;;;;;5116203;28;20410;-73
2022/11/15 06:34:48;;;;;;;21.40;11.15;;;;;;;;;;5115418;28;20030;-75
2022/11/15 06:37:33;;;;;;;24.88;11.02;;;;;;;;;;5115371;28;20044;-74
2022/11/15 06:40:19;;;;;;;19.23;10.57;;;;;;;;;;5116036;28;20355;-74
2022/11/15 06:43:05;;;;;;;20.17;11.25;;;;;;;;;;5101930;28;20451;-73
2022/11/15 06:45:51;;;;;;;21.98;11.02;;;;;;;;;;5101278;28;20432;-74
2022/11/15 06:48:36;;;;;;;19.35;11.10;;;;;;;;;;5116087;28;20050;-74
2022/11/15 06:51:22;;;;;;;22.17;11.43;;;;;;;;;;5116190;28;20099;-74
2022/11/15 06:54:07;;;;;;;28.83;12.63;;;;;;;;;;5116410;28;20097;-73
2022/11/15 06:56:53;;;;;;;29.98;13.13;;;;;;;;;;5100989;28;20030;-73
2022/11/15 06:59:39;;;;;;;25.98;11.63;;;;;;;;;;5115973;28;20395;-74
2022/11/15 07:02:24;;;;;;;27.25;12.60;;;;;;;;;;5100758;28;20028;-75
2022/11/15 07:05:11;;;;;;;23.65;12.63;;;;;;;;;;5115442;28;20047;-74
2022/11/15 07:07:57;;;;;;;28.05;12.55;;;;;;;;;;5115470;28;20107;-74
2022/11/15 07:10:43;;;;;;;22.40;12.13;;;;;;;;;;5100944;28;20097;-74
2022/11/15 07:13:29;;;;;;;27.88;13.25;;;;;;;;;;5115703;28;20028;-75
2022/11/15 07:16:15;;;;;;;26.05;12.75;;;;;;;;;;5100127;28;20366;-74
2022/11/15 07:19:00;;;;;;;27.35;13.18;;;;;;;;;;5100684;28;20015;-74
2022/11/15 07:21:46;;;;;;;22.85;12.23;;;;;;;;;;5115545;28;20023;-74
2022/11/15 07:24:32;;;;;;;27.08;13.25;;;;;;;;;;5115460;28;20026;-73
2022/11/15 07:27:17;;;;;;;23.30;12.20;;;;;;;;;;5115433;28;20056;-75
2022/11/15 07:30:03;;;;;;;24.40;12.05;;;;;;;;;;5100855;28;20024;-74
2022/11/15 07:33:07;;;;;;;29.55;12.68;;;;;;;;;;5115872;28;20466;-75
2022/11/15 07:35:52;;;;;;;26.13;12.18;;;;;;;;;;5125608;28;20054;-73
2022/11/15 07:38:38;;;;;;;23.40;12.13;;;;;;;;;;5115125;28;20136;-74
2022/11/15 07:41:24;;;;;;;24.08;12.18;;;;;;;;;;5115114;28;20023;-74
2022/11/15 07:44:09;;;;;;;21.83;11.85;;;;;;;;;;5115522;28;20140;-73
2022/11/15 07:46:55;;;;;;;27.75;13.25;;;;;;;;;;5115087;28;20022;-74
2022/11/15 07:49:40;;;;;;;23.23;12.90;;;;;;;;;;5099789;28;20424;-74
2022/11/15 07:52:26;;;;;;;20.42;11.63;;;;;;;;;;5115146;28;20046;-74
2022/11/15 07:55:11;;;;;;;30.73;12.82;;;;;;;;;;5118877;28;20019;-73
2022/11/15 07:58:01;;;;;;;20.40;11.52;;;;;;;;;;5121240;28;20038;-73
2022/11/15 08:00:47;;;;;;;28.63;12.95;;;;;;;;;;5100545;28;20028;-72
2022/11/15 08:03:32;;;;;;;22.60;12.55;;;;;;;;;;5115295;28;20012;-72
2022/11/15 08:06:18;;;;;;;21.15;12.10;;;;;;;;;;5114377;28;20081;-73
2022/11/15 08:09:04;;;;;;;21.48;11.75;;;;;;;;;;5100337;28;20034;-73
2022/11/15 08:11:49;;;;;;;22.70;11.73;;;;;;;;;;5100172;28;20462;-72
2022/11/15 08:14:35;;;;;;;23.92;11.85;;;;;;;;;;5114720;28;20032;-72
2022/11/15 08:17:21;;;;;;;21.73;12.23;;;;;;;;;;5118581;28;20055;-73
2022/11/15 08:20:06;;;;;;;24.55;12.38;;;;;;;;;;5115379;28;20020;-72
2022/11/15 08:22:52;;;;;;;27.92;13.13;;;;;;;;;;5114767;28;20020;-72
2022/11/15 08:25:38;;;;;;;29.42;13.88;;;;;;;;;;5114336;28;20098;-74
2022/11/15 08:28:24;;;;;;;31.10;14.13;;;;;;;;;;5115192;28;20024;-73
2022/11/15 08:31:13;;;;;;;27.90;13.70;;;;;;;;;;5114882;28;20350;-73
2022/11/15 08:33:58;;;;;;;27.48;13.95;;;;;;;;;;5115627;28;20034;-75
2022/11/15 08:36:44;;;;;;;25.63;13.60;;;;;;;;;;5114990;28;20054;-78
2022/11/15 08:39:29;;;;;;;37.45;21.13;;;;;;;;;;5100162;28;20022;-73
2022/11/15 08:42:16;;;;;;;32.97;16.27;;;;;;;;;;5118643;28;20028;-75
2022/11/15 08:45:01;;;;;;;33.90;17.63;;;;;;;;;;5117696;28;20030;-74
2022/11/15 08:47:47;;;;;;;33.20;16.85;;;;;;;;;;5118071;28;20023;-74
2022/11/15 08:50:33;;;;;;;28.30;14.63;;;;;;;;;;5118200;28;20026;-74
2022/11/15 08:53:18;;;;;;;26.55;14.75;;;;;;;;;;5118575;28;20027;-74
2022/11/15 08:56:07;;;;;;;29.63;15.05;;;;;;;;;;5118197;28;20207;-73
2022/11/15 08:58:52;;;;;;;27.10;14.50;;;;;;;;;;5118305;28;20020;-76
2022/11/15 09:01:38;;;;;;;28.00;15.52;;;;;;;;;;5118366;28;20024;-78
2022/11/15 09:04:24;;;;;;;25.88;15.10;;;;;;;;;;5118972;28;20126;-77
2022/11/15 09:07:10;;;;;;;28.40;15.20;;;;;;;;;;5104770;28;20023;-75
2022/11/15 09:09:56;;;;;;;26.63;14.63;;;;;;;;;;5102803;28;20485;-74
2022/11/15 09:12:41;;;;;;;25.50;13.82;;;;;;;;;;5118143;28;20038;-75
2022/11/15 09:15:27;;;;;;;22.65;13.80;;;;;;;;;;5117275;28;20029;-74
2022/11/15 09:18:12;;;;;;;30.92;14.80;;;;;;;;;;5118017;28;20024;-74
2022/11/15 09:20:59;;;;;;;32.50;15.30;;;;;;;;;;5117394;28;20038;-73
2022/11/15 09:23:44;;;;;;;26.98;14.73;;;;;;;;;;5119116;28;20024;-72
2022/11/15 09:26:30;;;;;;;25.15;13.82;;;;;;;;;;5117480;28;20015;-72
2022/11/15 09:29:15;;;;;;;26.33;14.35;;;;;;;;;;5116796;28;20444;-74
2022/11/15 09:32:01;;;;;;;28.15;15.00;;;;;;;;;;5117477;28;20088;-73
2022/11/15 09:34:46;;;;;;;32.22;15.15;;;;;;;;;;5117577;28;20053;-74
2022/11/15 09:37:32;;;;;;;32.05;15.18;;;;;;;;;;5116921;28;20118;-74
2022/11/15 09:40:20;;;;;;;33.50;15.27;;;;;;;;;;5117747;28;20085;-74
2022/11/15 09:43:17;;;;;;;25.50;14.15;;;;;;;;;;5117222;28;20313;-76
2022/11/15 09:46:09;;;;;;;33.97;14.82;;;;;;;;;;5102232;28;20079;-74
2022/11/15 09:48:59;;;;;;;28.58;14.93;;;;;;;;;;5116880;28;20011;-72
2022/11/15 09:51:47;;;;;;;25.13;13.80;;;;;;;;;;5117021;28;20028;-72
2022/11/15 09:54:37;;;;;;;25.33;13.95;;;;;;;;;;5103334;28;20030;-73
2022/11/15 09:57:22;;;;;;;35.40;15.75;;;;;;;;;;5111404;28;20034;-71
2022/11/15 10:00:28;;;;;;;28.85;15.60;;;;;;;;;;5115470;28;20073;-71
2022/11/15 10:03:14;;;;;;;31.38;16.17;;;;;;;;;;5117077;28;20165;-72
2022/11/15 10:06:02;;;;;;;28.60;15.98;;;;;;;;;;5116810;28;20064;-71
2022/11/15 10:08:51;;;;;;;30.48;14.80;;;;;;;;;;5118371;28;20149;-70
2022/11/15 10:11:37;;;;;;;33.50;15.68;;;;;;;;;;5115945;28;20027;-71
2022/11/15 10:14:24;;;;;;;31.55;16.52;;;;;;;;;;5117243;28;20031;-71
2022/11/15 10:17:30;;;;;;;29.33;15.68;;;;;;;;;;5114643;28;20089;-71
2022/11/15 10:20:16;;;;;;;26.75;15.27;;;;;;;;;;5116805;28;20034;-72
2022/11/15 10:23:05;;;;;;;28.52;15.65;;;;;;;;;;5116792;28;20019;-72
2022/11/15 10:25:55;;;;;;;30.75;16.02;;;;;;;;;;5117294;28;20020;-71
2022/11/15 10:28:41;;;;;;;28.83;16.27;;;;;;;;;;5116556;28;20047;-71
2022/11/15 10:31:27;;;;;;;28.55;16.15;;;;;;;;;;5115117;28;20098;-71
2022/11/15 10:34:14;;;;;;;28.73;15.45;;;;;;;;;;5116889;28;20107;-70
2022/11/15 10:37:01;;;;;;;29.05;15.73;;;;;;;;;;5101590;28;20106;-70
2022/11/15 10:40:02;;;;;;;27.95;16.27;;;;;;;;;;5102477;28;20024;-71
2022/11/15 10:42:48;;;;;;;31.17;17.48;;;;;;;;;;5117394;28;20020;-71
2022/11/15 10:45:34;;;;;;;27.92;16.52;;;;;;;;;;5116246;28;20028;-70
2022/11/15 10:48:21;;;;;;;32.15;16.40;;;;;;;;;;5115395;28;20428;-72
2022/11/15 10:51:18;;;;;;;29.38;17.23;;;;;;;;;;5114813;28;20061;-71
2022/11/15 10:54:06;;;;;;;37.78;19.98;;;;;;;;;;5114614;28;20030;-71
2022/11/15 10:56:52;;;;;;;31.38;17.20;;;;;;;;;;5114623;28;20027;-71
2022/11/15 10:59:38;;;;;;;31.75;17.38;;;;;;;;;;5114617;28;20019;-69
2022/11/15 11:02:24;;;;;;;30.45;17.02;;;;;;;;;;5086753;28;20456;-72
2022/11/15 11:05:24;;;;;;;30.63;16.35;;;;;;;;;;5116245;28;20019;-74
2022/11/15 11:08:10;;;;;;;30.33;16.45;;;;;;;;;;5100300;28;20084;-73
2022/11/15 11:10:57;;;;;;;28.30;16.15;;;;;;;;;;5101206;28;20122;-71
2022/11/15 11:13:43;;;;;;;28.67;15.40;;;;;;;;;;5115511;28;20039;-72
2022/11/15 11:16:36;;;;;;;28.13;16.40;;;;;;;;;;5113953;28;20114;-71
2022/11/15 11:19:33;;;;;;;30.65;16.75;;;;;;;;;;5114714;28;20030;-72
2022/11/15 11:22:25;;;;;;;29.55;18.00;;;;;;;;;;5115140;28;20019;-71
2022/11/15 11:25:19;;;;;;;29.73;17.48;;;;;;;;;;5115057;28;20020;-70
2022/11/15 11:28:14;;;;;;;29.92;17.40;;;;;;;;;;5115197;28;20026;-70
2022/11/15 11:31:19;;;;;;;32.65;17.67;;;;;;;;;;5113961;28;20401;-70
2022/11/15 11:34:08;;;;;;;33.35;17.60;;;;;;;;;;5115582;28;20084;-71
2022/11/15 11:37:32;;;;;;;34.13;18.33;;;;;;;;;;5114856;28;20127;-71
2022/11/15 11:40:20;;;;;;;29.33;16.65;;;;;;;;;;5034850;28;20057;-73
2022/11/15 11:43:25;;;;;;;30.70;18.00;;;;;;;;;;5032955;28;20045;-72
2022/11/15 11:46:11;;;;;;;32.95;18.23;;;;;;;;;;5115297;28;20022;-72
2022/11/15 11:49:01;;;;;;;28.38;17.02;;;;;;;;;;5115131;28;20028;-70
2022/11/15 11:52:09;;;;;;;27.08;16.30;;;;;;;;;;5114312;28;20023;-73
2022/11/15 11:55:01;;;;;;;34.83;16.88;;;;;;;;;;5114801;28;20062;-72
2022/11/15 11:58:01;;;;;;;27.52;15.95;;;;;;;;;;5114776;28;20028;-72
2022/11/15 12:00:49;;;;;;;27.08;16.48;;;;;;;;;;5114560;28;20023;-73
2022/11/15 12:03:41;;;;;;;28.00;16.30;;;;;;;;;;5114955;28;20012;-73
2022/11/15 12:06:26;;;;;;;27.90;15.50;;;;;;;;;;5113034;28;20027;-73
2022/11/15 12:09:14;;;;;;;27.88;15.10;;;;;;;;;;5114952;28;20020;-74
2022/11/15 12:12:18;;;;;;;31.83;16.70;;;;;;;;;;5115067;28;20027;-72
2022/11/15 12:15:12;;;;;;;29.00;16.75;;;;;;;;;;5100018;28;20023;-74
2022/11/15 12:18:00;;;;;;;43.70;16.85;;;;;;;;;;5114718;28;20019;-70
2022/11/15 12:21:13;;;;;;;25.33;15.32;;;;;;;;;;5114491;28;20023;-71
2022/11/15 12:24:03;;;;;;;31.88;17.88;;;;;;;;;;5115467;28;20016;-72
2022/11/15 12:27:05;;;;;;;28.95;17.25;;;;;;;;;;5114347;28;20017;-72
2022/11/15 12:29:53;;;;;;;32.35;16.88;;;;;;;;;;5115130;28;20099;-73
2022/11/15 12:32:47;;;;;;;28.13;16.70;;;;;;;;;;5099669;28;20104;-71
2022/11/15 12:35:40;;;;;;;27.92;17.23;;;;;;;;;;5116129;28;20020;-73
2022/11/15 12:38:49;;;;;;;30.48;17.55;;;;;;;;;;5113371;28;20058;-72
2022/11/15 12:41:39;;;;;;;29.48;18.15;;;;;;;;;;5114653;28;20075;-72
2022/11/15 12:44:31;;;;;;;34.58;19.25;;;;;;;;;;5099361;28;20089;-73
2022/11/15 12:47:24;;;;;;;28.58;18.00;;;;;;;;;;5099160;28;20015;-71
2022/11/15 12:50:13;;;;;;;30.38;17.95;;;;;;;;;;5113560;28;20032;-73
2022/11/15 12:53:17;;;;;;;36.10;18.27;;;;;;;;;;5097447;28;20030;-72
2022/11/15 12:56:03;;;;;;;37.28;18.95;;;;;;;;;;5113278;28;20107;-74
2022/11/15 12:58:56;;;;;;;31.38;18.25;;;;;;;;;;5113450;28;20012;-73
2022/11/15 13:01:41;;;;;;;30.83;18.02;;;;;;;;;;5113633;28;20016;-73
2022/11/15 13:04:28;;;;;;;36.10;18.95;;;;;;;;;;5112270;28;20440;-74
2022/11/15 13:07:32;;;;;;;31.90;18.85;;;;;;;;;;5113358;28;20054;-72
2022/11/15 13:10:29;;;;;;;30.58;17.98;;;;;;;;;;5113061;28;20122;-74
2022/11/15 13:13:35;;;;;;;38.38;21.67;;;;;;;;;;5112767;28;20102;-73
2022/11/15 13:16:20;;;;;;;30.55;18.73;;;;;;;;;;5113276;28;20376;-70
2022/11/15 13:19:09;;;;;;;27.60;17.08;;;;;;;;;;5113263;28;20035;-72
2022/11/15 13:25:01;;;;;;;33.25;18.90;;;;;;;;;;5113197;28;20031;-72
2022/11/15 13:27:50;;;;;;;33.55;18.15;;;;;;;;;;5101702;28;20461;-73
2022/11/15 13:30:36;;;;;;;29.70;17.42;;;;;;;;;;5102495;28;20027;-72
2022/11/15 13:33:29;;;;;;;26.05;16.70;;;;;;;;;;5102048;28;20023;-71
2022/11/15 13:36:14;;;;;;;30.08;17.55;;;;;;;;;;5100568;28;20054;-72
2022/11/15 13:39:04;;;;;;;28.70;17.40;;;;;;;;;;5106983;28;20036;-73
2022/11/15 13:41:51;;;;;;;26.65;16.63;;;;;;;;;;5101783;28;20051;-73
2022/11/15 13:44:36;;;;;;;26.17;16.13;;;;;;;;;;5117519;28;20024;-74
2022/11/15 13:47:24;;;;;;;27.15;16.98;;;;;;;;;;5116703;28;20088;-73
2022/11/15 13:50:11;;;;;;;34.60;19.10;;;;;;;;;;5116313;28;20068;-73
2022/11/15 13:52:58;;;;;;;30.80;18.10;;;;;;;;;;5115371;28;20030;-73
2022/11/15 13:55:44;;;;;;;30.98;17.83;;;;;;;;;;5102865;28;20031;-73
2022/11/15 13:58:30;;;;;;;30.73;19.08;;;;;;;;;;5117333;28;20148;-72
2022/11/15 14:01:19;;;;;;;35.08;18.95;;;;;;;;;;5101814;28;20412;-73
2022/11/15 14:04:05;;;;;;;34.60;19.27;;;;;;;;;;5116265;28;20015;-73
2022/11/15 14:06:53;;;;;;;32.80;18.75;;;;;;;;;;5116184;28;20034;-74
2022/11/15 14:09:40;;;;;;;31.08;18.17;;;;;;;;;;5115913;28;20012;-73
2022/11/15 14:12:25;;;;;;;31.05;18.63;;;;;;;;;;5116142;28;20083;-72
2022/11/15 14:15:30;;;;;;;30.38;17.95;;;;;;;;;;5116010;28;20106;-72
2022/11/15 14:18:35;;;;;;;35.85;17.98;;;;;;;;;;5115546;28;20336;-72
2022/11/15 14:21:21;;;;;;;30.10;17.85;;;;;;;;;;5115902;28;20066;-72
2022/11/15 14:24:20;;;;;;;31.58;17.83;;;;;;;;;;5100943;28;20427;-72
2022/11/15 14:27:24;;;;;;;30.38;17.55;;;;;;;;;;5116161;28;20012;-71
2022/11/15 14:30:16;;;;;;;30.02;17.48;;;;;;;;;;5101615;28;20345;-70
2022/11/15 14:33:12;;;;;;;28.60;16.90;;;;;;;;;;5100574;28;20134;-72
2022/11/15 14:36:03;;;;;;;34.58;18.95;;;;;;;;;;5101752;28;20020;-71
2022/11/15 14:38:48;;;;;;;33.10;19.20;;;;;;;;;;5114514;28;20442;-72
2022/11/15 14:41:37;;;;;;;39.10;22.20;;;;;;;;;;5115458;28;20447;-72
2022/11/15 14:44:23;;;;;;;34.17;19.23;;;;;;;;;;5101595;28;20146;-71
2022/11/15 14:47:08;;;;;;;34.60;19.40;;;;;;;;;;5116591;28;20163;-72
2022/11/15 14:49:54;;;;;;;34.60;18.77;;;;;;;;;;5116241;28;20007;-74
2022/11/15 14:52:40;;;;;;;33.90;18.60;;;;;;;;;;5116951;28;20027;-75
2022/11/15 14:55:31;;;;;;;40.28;19.17;;;;;;;;;;5100709;28;20094;-73
2022/11/15 14:58:17;;;;;;;34.40;18.25;;;;;;;;;;5115237;28;20019;-71
2022/11/15 15:01:09;;;;;;;36.65;19.48;;;;;;;;;;5116330;28;20032;-71
2022/11/15 15:03:58;;;;;;;36.67;19.60;;;;;;;;;;5115778;28;20020;-72
2022/11/15 15:06:44;;;;;;;39.80;20.38;;;;;;;;;;5116164;28;20163;-70
2022/11/15 15:09:29;;;;;;;33.72;18.88;;;;;;;;;;5115831;28;20107;-69
2022/11/15 15:12:17;;;;;;;35.90;20.15;;;;;;;;;;5115741;28;20012;-73
2022/11/15 15:15:03;;;;;;;36.28;19.48;;;;;;;;;;5116766;28;20386;-72
2022/11/15 15:17:48;;;;;;;36.17;20.17;;;;;;;;;;5101917;28;20039;-72
2022/11/15 15:20:34;;;;;;;36.28;20.48;;;;;;;;;;5116799;28;20020;-71
2022/11/15 15:23:20;;;;;;;36.95;21.25;;;;;;;;;;5117910;28;20007;-73
2022/11/15 15:26:06;;;;;;;40.75;21.60;;;;;;;;;;5118704;28;20024;-71
2022/11/15 15:28:52;;;;;;;39.10;21.27;;;;;;;;;;5102968;28;20051;-72
2022/11/15 15:31:38;;;;;;;40.30;22.20;;;;;;;;;;5114825;28;20098;-76
2022/11/15 15:34:23;;;;;;;39.40;20.85;;;;;;;;;;5100633;28;20035;-76
2022/11/15 15:37:09;;;;;;;38.92;20.67;;;;;;;;;;5114903;28;20043;-75
2022/11/15 15:39:56;;;;;;;42.17;21.30;;;;;;;;;;5115531;28;20024;-75
2022/11/15 15:42:42;;;;;;;39.42;20.75;;;;;;;;;;5100050;28;20059;-75
2022/11/15 15:45:28;;;;;;;38.28;21.33;;;;;;;;;;5115645;28;20103;-75
2022/11/15 15:48:14;;;;;;;41.28;21.98;;;;;;;;;;5100288;28;20024;-75
2022/11/15 15:51:00;;;;;;;42.45;20.80;;;;;;;;;;5115229;28;20030;-75
2022/11/15 15:53:45;;;;;;;42.08;21.83;;;;;;;;;;5115335;28;20020;-75
2022/11/15 15:56:31;;;;;;;43.72;22.02;;;;;;;;;;5115270;28;20027;-70
2022/11/15 15:59:17;;;;;;;41.50;21.08;;;;;;;;;;5116254;28;20463;-72
2022/11/15 16:02:02;;;;;;;41.67;21.70;;;;;;;;;;5115379;28;20023;-72
2022/11/15 16:04:48;;;;;;;39.22;21.10;;;;;;;;;;5114657;28;20073;-71
2022/11/15 16:07:33;;;;;;;39.00;20.42;;;;;;;;;;5115226;28;20019;-70
2022/11/15 16:10:19;;;;;;;44.28;20.05;;;;;;;;;;5099801;28;20020;-73
2022/11/15 16:13:05;;;;;;;40.60;21.95;;;;;;;;;;5114860;28;20028;-71
2022/11/15 16:15:52;;;;;;;38.70;19.20;;;;;;;;;;5115235;28;20043;-71
2022/11/15 16:18:37;;;;;;;41.90;22.52;;;;;;;;;;5114715;28;20079;-71
2022/11/15 16:21:23;;;;;;;41.35;20.58;;;;;;;;;;5099773;28;20056;-75
2022/11/15 16:24:09;;;;;;;42.30;21.63;;;;;;;;;;5114207;28;20077;-74
2022/11/15 16:26:54;;;;;;;44.92;21.58;;;;;;;;;;5114033;28;20016;-72
2022/11/15 16:29:40;;;;;;;47.67;22.35;;;;;;;;;;5115018;28;20489;-74
2022/11/15 16:32:26;;;;;;;39.42;19.80;;;;;;;;;;5099979;28;20396;-72